createdAt,value
2023-11-21T00:01:27.694Z,99305.00
2023-11-21T00:03:58.175Z,99303.56
2023-11-21T00:06:28.986Z,99303.34
2023-11-21T00:09:00.585Z,99297.28
2023-11-21T00:11:33.537Z,99301.47
2023-11-21T00:14:04.382Z,99299.25
2023-11-21T00:16:37.732Z,99303.56
2023-11-21T00:19:11.266Z,99298.53
2023-11-21T00:21:41.996Z,99300.66
2023-11-21T00:24:15.058Z,99308.69
2023-11-21T00:26:59.605Z,99309.84
2023-11-21T00:29:30.432Z,99306.50
2023-11-21T00:32:00.708Z,99308.56
2023-11-21T00:34:36.756Z,99303.66
2023-11-21T00:37:08.599Z,99310.75
2023-11-21T00:39:38.949Z,99298.75
2023-11-21T00:42:13.656Z,99308.88
2023-11-21T00:44:44.504Z,99312.44
2023-11-21T00:47:17.446Z,99307.63
2023-11-21T00:49:48.217Z,99307.63
2023-11-21T00:52:18.548Z,99304.59
2023-11-21T00:54:49.457Z,99298.88
2023-11-21T00:57:22.789Z,99305.66
2023-11-21T00:59:53.631Z,99305.75
2023-11-21T01:02:26.860Z,99303.88
2023-11-21T01:04:57.838Z,99314.34
2023-11-21T01:07:28.881Z,99305.03
2023-11-21T01:10:05.052Z,99299.91
2023-11-21T01:12:38.934Z,99301.16
2023-11-21T01:15:13.462Z,99299.66
2023-11-21T01:17:44.260Z,99300.41
2023-11-21T01:20:15.386Z,99309.38
2023-11-21T01:22:46.459Z,99309.88
2023-11-21T01:25:17.783Z,99312.03
2023-11-21T01:27:50.756Z,99312.03
2023-11-21T01:30:22.302Z,99303.34
2023-11-21T01:32:52.663Z,99296.44
2023-11-21T01:35:23.338Z,99299.81
2023-11-21T01:37:56.842Z,99298.22
2023-11-21T01:40:31.795Z,99303.16
2023-11-21T01:43:05.412Z,99306.59
2023-11-21T01:45:35.682Z,99297.00
2023-11-21T01:48:08.259Z,99309.97
2023-11-21T01:50:39.133Z,99309.13
2023-11-21T01:53:10.055Z,99305.47
2023-11-21T01:55:40.809Z,99307.66
2023-11-21T01:58:15.190Z,99307.47
2023-11-21T02:00:46.024Z,99303.81
2023-11-21T02:03:16.556Z,99296.63
2023-11-21T02:05:47.416Z,99294.31
2023-11-21T02:08:18.231Z,99302.22
2023-11-21T02:10:49.581Z,99295.88
2023-11-21T02:13:23.044Z,99298.88
2023-11-21T02:15:55.840Z,99298.97
2023-11-21T02:18:26.738Z,99304.28
2023-11-21T02:20:57.237Z,99288.63
2023-11-21T02:23:30.788Z,99293.84
2023-11-21T02:26:05.700Z,99282.84
2023-11-21T02:28:36.209Z,99282.03
2023-11-21T02:31:06.956Z,99283.59
2023-11-21T02:33:37.764Z,99277.63
2023-11-21T02:36:09.735Z,99284.72
2023-11-21T02:38:43.110Z,99289.09
2023-11-21T02:41:15.737Z,99282.13
2023-11-21T02:43:46.547Z,99283.25
2023-11-21T02:46:17.506Z,99285.00
2023-11-21T02:48:47.811Z,99291.06
2023-11-21T02:51:21.116Z,99290.25
2023-11-21T02:53:54.946Z,99300.59
2023-11-21T02:56:27.598Z,99301.31
2023-11-21T02:59:01.188Z,99303.94
2023-11-21T03:01:33.276Z,99297.22
2023-11-21T03:04:04.224Z,99291.06
2023-11-21T03:06:35.171Z,99297.13
2023-11-21T03:09:08.752Z,99293.50
2023-11-21T03:11:39.013Z,99291.91
2023-11-21T03:14:12.077Z,99289.09
2023-11-21T03:16:44.036Z,99284.63
2023-11-21T03:19:16.336Z,99292.50
2023-11-21T03:21:47.199Z,99297.09
2023-11-21T03:24:21.157Z,99292.81
2023-11-21T03:26:55.017Z,99291.22
2023-11-21T03:29:27.587Z,99283.50
2023-11-21T03:31:57.847Z,99279.41
2023-11-21T03:34:30.102Z,99274.19
2023-11-21T03:37:01.014Z,99275.13
2023-11-21T03:39:37.171Z,99272.75
2023-11-21T03:42:08.364Z,99263.78
2023-11-21T03:44:41.605Z,99267.84
2023-11-21T03:47:23.838Z,99262.31
2023-11-21T03:49:54.667Z,99265.97
2023-11-21T03:52:25.644Z,99254.59
2023-11-21T03:55:01.770Z,99256.25
2023-11-21T03:57:32.119Z,99251.97
2023-11-21T04:00:02.385Z,99252.63
2023-11-21T04:02:33.631Z,99251.66
2023-11-21T04:05:04.997Z,99242.81
2023-11-21T04:07:38.640Z,99240.19
2023-11-21T04:10:14.601Z,99251.78
2023-11-21T04:12:44.986Z,99248.72
2023-11-21T04:15:16.512Z,99250.63
2023-11-21T04:17:48.360Z,99255.84
2023-11-21T04:20:19.673Z,99256.47
2023-11-21T04:22:50.204Z,99254.06
2023-11-21T04:25:28.615Z,99255.31
2023-11-21T04:27:59.738Z,99252.25
2023-11-21T04:30:30.849Z,99251.22
2023-11-21T04:33:01.613Z,99261.88
2023-11-21T04:35:32.008Z,99267.09
2023-11-21T04:38:02.423Z,99275.03
2023-11-21T04:40:35.739Z,99264.88
2023-11-21T04:43:08.140Z,99271.03
2023-11-21T04:45:38.901Z,99260.69
2023-11-21T04:48:11.813Z,99261.84
2023-11-21T04:50:42.157Z,99256.63
2023-11-21T04:53:14.679Z,99261.72
2023-11-21T04:55:50.930Z,99258.28
2023-11-21T04:58:24.159Z,99261.84
2023-11-21T05:00:55.015Z,99259.09
2023-11-21T05:03:26.064Z,99259.75
2023-11-21T05:05:57.258Z,99269.34
2023-11-21T05:08:27.643Z,99276.16
2023-11-21T05:11:03.828Z,99278.75
2023-11-21T05:13:37.795Z,99290.69
2023-11-21T05:16:08.938Z,99302.59
2023-11-21T05:18:43.795Z,99296.06
2023-11-21T05:21:14.213Z,99302.22
2023-11-21T05:23:44.840Z,99312.66
2023-11-21T05:26:21.765Z,99310.34
2023-11-21T05:28:52.622Z,99311.63
2023-11-21T05:31:23.256Z,99309.34
2023-11-21T05:33:57.470Z,99307.09
2023-11-21T05:36:27.818Z,99303.25
2023-11-21T05:38:58.309Z,99300.34
2023-11-21T05:41:31.749Z,99304.72
2023-11-21T05:44:02.577Z,99297.31
2023-11-21T05:46:34.435Z,99299.72
2023-11-21T05:49:05.620Z,99304.94
2023-11-21T05:51:36.404Z,99304.56
2023-11-21T05:54:07.258Z,99308.84
2023-11-21T05:56:40.615Z,99306.88
2023-11-21T05:59:11.535Z,99312.94
2023-11-21T06:01:44.664Z,99306.66
2023-11-21T06:04:15.941Z,99308.53
2023-11-21T06:06:46.982Z,99308.94
2023-11-21T06:09:19.788Z,99310.75
2023-11-21T06:11:53.130Z,99305.09
2023-11-21T06:14:26.168Z,99311.78
2023-11-21T06:16:58.041Z,99317.75
2023-11-21T06:19:28.921Z,99311.28
2023-11-21T06:22:02.748Z,99323.31
2023-11-21T06:24:37.244Z,99322.38
2023-11-21T06:27:10.660Z,99330.84
2023-11-21T06:29:41.075Z,99329.88
2023-11-21T06:32:12.059Z,99328.25
2023-11-21T06:34:42.390Z,99327.72
2023-11-21T06:37:13.367Z,99324.78
2023-11-21T06:39:43.809Z,99318.84
2023-11-21T06:42:17.115Z,99334.53
2023-11-21T06:44:52.986Z,99334.09
2023-11-21T06:47:26.230Z,99336.06
2023-11-21T06:49:57.706Z,99336.50
2023-11-21T06:52:28.088Z,99336.38
2023-11-21T06:54:58.569Z,99333.34
2023-11-21T06:57:34.120Z,99330.41
2023-11-21T07:00:05.014Z,99331.75
2023-11-21T07:02:35.750Z,99336.88
2023-11-21T07:05:10.084Z,99340.94
2023-11-21T07:07:41.208Z,99336.97
2023-11-21T07:10:12.373Z,99347.13
2023-11-21T07:12:48.122Z,99345.88
2023-11-21T07:15:20.973Z,99342.19
2023-11-21T07:17:51.855Z,99335.59
2023-11-21T07:20:22.829Z,99347.41
2023-11-21T07:22:55.930Z,99345.41
2023-11-21T07:25:26.799Z,99342.00
2023-11-21T07:27:59.706Z,99341.47
2023-11-21T07:30:31.131Z,99341.75
2023-11-21T07:33:02.412Z,99346.31
2023-11-21T07:35:33.162Z,99354.44
2023-11-21T07:38:03.560Z,99343.41
2023-11-21T07:40:34.360Z,99353.31
2023-11-21T07:43:07.287Z,99360.63
2023-11-21T07:45:40.401Z,99368.03
2023-11-21T07:48:13.565Z,99367.94
2023-11-21T07:50:43.931Z,99374.78
2023-11-21T07:53:14.920Z,99383.72
2023-11-21T07:55:48.907Z,99384.13
2023-11-21T07:58:22.630Z,99385.22
2023-11-21T08:00:53.488Z,99391.31
2023-11-21T08:03:24.612Z,99392.63
2023-11-21T08:05:56.092Z,99392.06
2023-11-21T08:08:29.548Z,99393.84
2023-11-21T08:11:00.227Z,99393.13
2023-11-21T08:13:36.011Z,99387.06
2023-11-21T08:16:08.812Z,99393.34
2023-11-21T08:18:41.636Z,99392.75
2023-11-21T08:21:13.551Z,99389.44
2023-11-21T08:23:45.905Z,99392.84
2023-11-21T08:26:16.799Z,99393.25
2023-11-21T08:28:50.256Z,99392.75
2023-11-21T08:31:20.555Z,99393.44
2023-11-21T08:33:51.999Z,99398.81
2023-11-21T08:36:24.386Z,99410.75
2023-11-21T08:38:57.546Z,99418.53
2023-11-21T08:41:29.324Z,99406.31
2023-11-21T08:44:08.975Z,99401.53
2023-11-21T08:46:43.413Z,99399.88
2023-11-21T08:49:17.785Z,99395.69
2023-11-21T08:51:48.888Z,99401.41
2023-11-21T08:54:19.167Z,99390.91
2023-11-21T08:56:51.428Z,99404.28
2023-11-21T08:59:24.384Z,99398.28
2023-11-21T09:01:55.090Z,99397.41
2023-11-21T09:04:25.194Z,99400.38
2023-11-21T09:06:55.981Z,99397.38
2023-11-21T09:09:26.453Z,99405.81
2023-11-21T09:12:01.994Z,99406.75
2023-11-21T09:14:35.335Z,99403.38
2023-11-21T09:17:12.255Z,99401.88
2023-11-21T09:19:44.832Z,99403.66
2023-11-21T09:22:18.102Z,99408.75
2023-11-21T09:24:51.317Z,99395.34
2023-11-21T09:27:23.006Z,99399.94
2023-11-21T09:29:59.472Z,99399.31
2023-11-21T09:32:31.180Z,99393.59
2023-11-21T09:35:03.569Z,99386.41
2023-11-21T09:37:35.075Z,99382.28
2023-11-21T09:40:06.534Z,99387.75
2023-11-21T09:42:44.590Z,99376.38
2023-11-21T09:45:27.392Z,99387.75
2023-11-21T09:47:59.359Z,99381.78
2023-11-21T09:50:31.535Z,99382.59
2023-11-21T09:53:12.112Z,99388.75
2023-11-21T09:55:48.087Z,99380.06
2023-11-21T09:58:23.070Z,99379.41
2023-11-21T10:00:58.182Z,99374.81
2023-11-21T10:03:29.196Z,99377.50
2023-11-21T10:06:02.143Z,99383.28
2023-11-21T10:08:42.979Z,99376.78
2023-11-21T10:11:24.180Z,99375.41
2023-11-21T10:13:58.723Z,99372.22
2023-11-21T10:16:33.702Z,99370.22
2023-11-21T10:19:09.478Z,99367.72
2023-11-21T10:21:42.815Z,99368.41
2023-11-21T10:24:14.007Z,99360.25
2023-11-21T10:26:51.223Z,99371.63
2023-11-21T10:29:29.329Z,99380.94
2023-11-21T10:32:03.451Z,99375.97
2023-11-21T10:34:34.216Z,99376.09
2023-11-21T10:37:18.092Z,99365.72
2023-11-21T10:39:49.352Z,99372.66
2023-11-21T10:42:22.471Z,99365.97
2023-11-21T10:44:53.483Z,99356.53
2023-11-21T10:47:27.621Z,99355.69
2023-11-21T10:49:58.470Z,99361.00
2023-11-21T10:52:31.333Z,99360.47
2023-11-21T10:55:04.941Z,99358.34
2023-11-21T10:57:36.518Z,99355.69
2023-11-21T11:00:09.056Z,99348.75
2023-11-21T11:02:43.541Z,99349.09
2023-11-21T11:05:16.684Z,99345.25
2023-11-21T11:07:49.129Z,99350.13
2023-11-21T11:10:22.245Z,99353.19
2023-11-21T11:12:53.840Z,99345.31
2023-11-21T11:15:28.773Z,99337.97
2023-11-21T11:18:06.244Z,99340.59
2023-11-21T11:20:42.137Z,99344.06
2023-11-21T11:23:31.524Z,99344.84
2023-11-21T11:26:19.016Z,99337.50
2023-11-21T11:28:56.249Z,99339.88
2023-11-21T11:31:42.065Z,99339.81
2023-11-21T11:34:29.205Z,99336.78
2023-11-21T11:37:09.616Z,99340.84
2023-11-21T11:39:43.126Z,99329.34
2023-11-21T11:42:19.716Z,99333.66
2023-11-21T11:44:59.056Z,99334.13
2023-11-21T11:47:35.457Z,99336.28
2023-11-21T11:50:15.017Z,99342.97
2023-11-21T11:52:52.182Z,99343.22
2023-11-21T11:55:24.381Z,99347.53
2023-11-21T11:57:56.895Z,99350.91
2023-11-21T12:00:39.158Z,99355.94
2023-11-21T12:03:13.151Z,99345.06
2023-11-21T12:05:46.762Z,99352.13
2023-11-21T12:08:17.017Z,99349.91
2023-11-21T12:10:50.116Z,99350.03
2023-11-21T12:13:26.464Z,99342.44
2023-11-21T12:15:58.056Z,99349.31
2023-11-21T12:18:29.328Z,99348.44
2023-11-21T12:21:03.049Z,99357.03
2023-11-21T12:23:36.711Z,99359.53
2023-11-21T12:26:12.045Z,99365.63
2023-11-21T12:28:42.479Z,99362.16
2023-11-21T12:31:19.963Z,99360.31
2023-11-21T12:33:53.933Z,99360.44
2023-11-21T12:36:27.145Z,99361.03
2023-11-21T12:38:58.378Z,99361.63
2023-11-21T12:41:29.215Z,99360.94
2023-11-21T12:44:00.079Z,99370.63
2023-11-21T12:46:35.626Z,99369.81
2023-11-21T12:49:06.032Z,99365.38
2023-11-21T12:51:39.484Z,99365.66
2023-11-21T12:54:11.410Z,99365.38
2023-11-21T12:56:42.866Z,99370.75
2023-11-21T12:59:17.045Z,99366.38
2023-11-21T13:01:50.566Z,99366.72
2023-11-21T13:04:23.893Z,99372.00
2023-11-21T13:07:00.874Z,99366.72
2023-11-21T13:09:33.021Z,99369.84
2023-11-21T13:12:07.525Z,99371.28
2023-11-21T13:14:38.635Z,99367.09
2023-11-21T13:17:09.047Z,99378.56
2023-11-21T13:19:40.046Z,99375.94
2023-11-21T13:22:13.260Z,99369.84
2023-11-21T13:24:47.359Z,99373.31
2023-11-21T13:27:17.714Z,99368.28
2023-11-21T13:29:51.259Z,99368.75
2023-11-21T13:32:23.614Z,99367.09
2023-11-21T13:34:57.159Z,99376.16
2023-11-21T13:37:33.439Z,99379.75
2023-11-21T13:40:05.202Z,99379.47
2023-11-21T13:42:35.576Z,99381.16
2023-11-21T13:45:07.863Z,99377.44
2023-11-21T13:47:39.476Z,99378.28
2023-11-21T13:50:18.312Z,99379.38
2023-11-21T13:52:51.301Z,99387.13
2023-11-21T13:55:25.528Z,99387.00
2023-11-21T13:58:00.471Z,99389.63
2023-11-21T14:00:43.614Z,99392.00
2023-11-21T14:03:20.242Z,99395.72
2023-11-21T14:05:54.111Z,99399.06
2023-11-21T14:08:29.932Z,99407.44
2023-11-21T14:11:01.325Z,99410.66
2023-11-21T14:13:35.466Z,99405.50
2023-11-21T14:16:08.025Z,99398.16
2023-11-21T14:18:44.954Z,99405.06
2023-11-21T14:21:16.831Z,99411.16
2023-11-21T14:23:50.307Z,99410.78
2023-11-21T14:26:22.105Z,99415.94
2023-11-21T14:28:53.566Z,99426.06
2023-11-21T14:31:29.062Z,99420.72
2023-11-21T14:34:03.141Z,99416.19
2023-11-21T14:36:33.783Z,99416.19
2023-11-21T14:39:10.601Z,99420.25
2023-11-21T14:41:41.400Z,99423.09
2023-11-21T14:44:13.652Z,99419.41
2023-11-21T14:46:47.534Z,99423.09
2023-11-21T14:49:24.720Z,99427.53
2023-11-21T14:52:08.764Z,99423.19
2023-11-21T14:54:47.453Z,99428.44
2023-11-21T14:57:19.819Z,99433.81
2023-11-21T14:59:53.503Z,99425.56
2023-11-21T15:02:23.919Z,99432.16
2023-11-21T15:05:05.564Z,99433.47
2023-11-21T15:07:36.276Z,99435.84
2023-11-21T15:10:17.015Z,99438.00
2023-11-21T15:12:47.976Z,99431.31
2023-11-21T15:15:20.096Z,99426.78
2023-11-21T15:17:50.948Z,99427.13
2023-11-21T15:20:24.031Z,99432.38
2023-11-21T15:22:55.249Z,99434.78
2023-11-21T15:25:28.741Z,99435.94
2023-11-21T15:27:59.122Z,99440.13
2023-11-21T15:30:35.836Z,99439.78
2023-11-21T15:33:06.694Z,99438.56
2023-11-21T15:35:39.478Z,99444.09
2023-11-21T15:38:10.282Z,99441.34
2023-11-21T15:40:44.774Z,99450.63
2023-11-21T15:43:15.141Z,99450.53
2023-11-21T15:45:46.006Z,99448.50
2023-11-21T15:48:17.809Z,99456.25
2023-11-21T15:50:48.989Z,99446.09
2023-11-21T15:53:19.835Z,99445.16
2023-11-21T15:55:53.243Z,99451.69
2023-11-21T15:58:23.619Z,99451.34
2023-11-21T16:00:55.099Z,99449.22
2023-11-21T16:03:26.234Z,99441.47
2023-11-21T16:05:56.316Z,99450.41
2023-11-21T16:08:27.349Z,99452.31
2023-11-21T16:11:04.623Z,99453.97
2023-11-21T16:13:35.782Z,99461.63
2023-11-21T16:16:06.847Z,99456.59
2023-11-21T16:18:39.958Z,99458.50
2023-11-21T16:21:13.857Z,99465.88
2023-11-21T16:23:44.145Z,99462.66
2023-11-21T16:26:20.523Z,99465.50
2023-11-21T16:28:50.929Z,99468.34
2023-11-21T16:31:26.340Z,99461.31
2023-11-21T16:34:03.309Z,99464.88
2023-11-21T16:36:39.558Z,99470.84
2023-11-21T16:39:11.121Z,99466.09
2023-11-21T16:41:53.436Z,99455.84
2023-11-21T16:44:27.344Z,99461.19
2023-11-21T16:46:58.903Z,99456.72
2023-11-21T16:49:30.990Z,99461.97
2023-11-21T16:52:01.943Z,99453.28
2023-11-21T16:54:37.066Z,99458.41
2023-11-21T16:57:10.296Z,99461.03
2023-11-21T16:59:41.048Z,99460.19
2023-11-21T17:02:14.630Z,99462.69
2023-11-21T17:04:48.490Z,99451.81
2023-11-21T17:07:22.981Z,99453.09
2023-11-21T17:09:54.038Z,99457.59
2023-11-21T17:12:27.648Z,99461.91
2023-11-21T17:14:57.972Z,99476.56
2023-11-21T17:17:28.619Z,99467.94
2023-11-21T17:20:01.728Z,99476.88
2023-11-21T17:22:32.750Z,99482.94
2023-11-21T17:25:03.544Z,99487.84
2023-11-21T17:27:36.992Z,99494.28
2023-11-21T17:30:08.195Z,99484.94
2023-11-21T17:32:39.297Z,99487.06
2023-11-21T17:35:12.869Z,99487.06
2023-11-21T17:37:57.181Z,99486.13
2023-11-21T17:40:31.015Z,99493.25
2023-11-21T17:43:04.629Z,99489.47
2023-11-21T17:45:35.084Z,99488.31
2023-11-21T17:48:05.891Z,99490.19
2023-11-21T17:50:35.945Z,99486.13
2023-11-21T17:53:06.318Z,99481.09
2023-11-21T17:55:42.492Z,99476.75
2023-11-21T17:58:18.695Z,99477.81
2023-11-21T18:00:50.153Z,99480.41
2023-11-21T18:03:22.016Z,99489.75
2023-11-21T18:05:52.412Z,99488.31
2023-11-21T18:08:23.366Z,99498.78
2023-11-21T18:10:54.429Z,99497.31
2023-11-21T18:13:27.429Z,99495.25
2023-11-21T18:15:58.356Z,99499.47
2023-11-21T18:18:32.041Z,99495.06
2023-11-21T18:21:04.822Z,99494.00
2023-11-21T18:23:35.566Z,99491.72
2023-11-21T18:26:05.915Z,99491.50
2023-11-21T18:28:43.726Z,99489.28
2023-11-21T18:31:16.379Z,99484.38
2023-11-21T18:33:47.781Z,99488.88
2023-11-21T18:36:21.136Z,99486.69
2023-11-21T18:38:55.511Z,99485.22
2023-11-21T18:41:27.942Z,99485.63
2023-11-21T18:44:01.445Z,99490.34
2023-11-21T18:46:39.246Z,99482.91
2023-11-21T18:49:10.484Z,99491.06
2023-11-21T18:51:43.093Z,99488.66
2023-11-21T18:54:13.358Z,99485.03
2023-11-21T18:56:46.690Z,99485.97
2023-11-21T18:59:22.262Z,99483.03
2023-11-21T19:01:53.088Z,99492.34
2023-11-21T19:04:25.705Z,99494.03
2023-11-21T19:07:00.849Z,99487.75
2023-11-21T19:09:42.300Z,99497.38
2023-11-21T19:12:14.880Z,99500.00
2023-11-21T19:14:51.547Z,99510.16
2023-11-21T19:17:23.475Z,99501.91
2023-11-21T19:19:53.784Z,99509.97
2023-11-21T19:22:24.071Z,99505.56
2023-11-21T19:24:54.682Z,99508.38
2023-11-21T19:27:25.158Z,99512.59
2023-11-21T19:30:04.979Z,99507.13
2023-11-21T19:32:39.438Z,99512.06
2023-11-21T19:35:11.072Z,99513.19
2023-11-21T19:37:41.510Z,99514.38
2023-11-21T19:40:15.772Z,99519.72
2023-11-21T19:42:49.650Z,99525.53
2023-11-21T19:45:27.792Z,99525.09
2023-11-21T19:47:58.973Z,99519.31
2023-11-21T19:50:30.133Z,99521.72
2023-11-21T19:53:01.172Z,99528.84
2023-11-21T19:55:35.877Z,99529.34
2023-11-21T19:58:08.218Z,99546.81
2023-11-21T20:00:41.964Z,99534.56
2023-11-21T20:03:12.909Z,99545.34
2023-11-21T20:05:48.010Z,99545.25
2023-11-21T20:08:24.719Z,99548.69
2023-11-21T20:10:58.306Z,99560.84
2023-11-21T20:13:29.492Z,99559.25
2023-11-21T20:16:02.779Z,99560.19
2023-11-21T20:18:34.335Z,99559.78
2023-11-21T20:21:04.933Z,99563.03
2023-11-21T20:23:35.882Z,99565.50
2023-11-21T20:26:08.309Z,99568.13
2023-11-21T20:28:39.962Z,99577.00
2023-11-21T20:31:16.183Z,99568.22
2023-11-21T20:33:47.447Z,99575.13
2023-11-21T20:36:17.979Z,99569.16
2023-11-21T20:38:49.114Z,99565.59
2023-11-21T20:41:22.358Z,99572.59
2023-11-21T20:43:57.486Z,99568.41
2023-11-21T20:46:37.093Z,99578.13
2023-11-21T20:49:08.324Z,99580.00
2023-11-21T20:51:42.409Z,99580.09
2023-11-21T20:54:12.666Z,99582.00
2023-11-21T20:56:43.232Z,99583.78
2023-11-21T20:59:16.889Z,99592.31
2023-11-21T21:01:50.393Z,99596.09
2023-11-21T21:04:22.341Z,99601.81
2023-11-21T21:06:55.992Z,99605.16
2023-11-21T21:09:26.337Z,99603.47
2023-11-21T21:11:58.772Z,99608.81
2023-11-21T21:14:30.901Z,99612.34
2023-11-21T21:17:04.673Z,99610.59
2023-11-21T21:19:35.085Z,99610.41
2023-11-21T21:22:05.843Z,99617.59
2023-11-21T21:24:38.195Z,99613.66
2023-11-21T21:27:09.001Z,99616.31
2023-11-21T21:29:40.826Z,99621.16
2023-11-21T21:32:14.209Z,99612.03
2023-11-21T21:34:44.556Z,99617.00
2023-11-21T21:37:15.371Z,99618.19
2023-11-21T21:39:46.361Z,99617.44
2023-11-21T21:42:17.158Z,99618.88
2023-11-21T21:44:47.446Z,99625.84
2023-11-21T21:47:20.355Z,99622.84
2023-11-21T21:49:51.653Z,99622.84
2023-11-21T21:52:22.432Z,99631.53
2023-11-21T21:54:53.204Z,99628.06
2023-11-21T21:57:23.969Z,99629.66
2023-11-21T21:59:55.412Z,99625.09
2023-11-21T22:02:28.974Z,99631.91
2023-11-21T22:04:59.942Z,99639.84
2023-11-21T22:07:30.491Z,99635.38
2023-11-21T22:10:00.873Z,99632.94
2023-11-21T22:12:31.396Z,99628.00
2023-11-21T22:15:03.793Z,99623.97
2023-11-21T22:17:40.020Z,99624.16
2023-11-21T22:20:12.111Z,99633.84
2023-11-21T22:22:43.155Z,99624.72
2023-11-21T22:25:15.996Z,99631.88
2023-11-21T22:27:46.846Z,99627.59
2023-11-21T22:30:17.898Z,99633.91
2023-11-21T22:32:53.542Z,99627.00
2023-11-21T22:35:24.349Z,99621.88
2023-11-21T22:37:55.578Z,99622.06
2023-11-21T22:40:28.847Z,99617.84
2023-11-21T22:43:00.220Z,99613.66
2023-11-21T22:45:31.418Z,99635.00
2023-11-21T22:48:04.911Z,99635.44
2023-11-21T22:50:35.277Z,99632.41
2023-11-21T22:53:05.915Z,99629.91
2023-11-21T22:55:36.777Z,99632.78
2023-11-21T22:58:08.187Z,99639.09
2023-11-21T23:00:39.817Z,99640.28
2023-11-21T23:03:15.481Z,99642.22
2023-11-21T23:05:49.091Z,99638.09
2023-11-21T23:08:19.877Z,99645.53
2023-11-21T23:10:51.187Z,99646.63
2023-11-21T23:13:23.558Z,99645.03
2023-11-21T23:15:56.580Z,99651.25
2023-11-21T23:18:31.377Z,99647.03
2023-11-21T23:21:02.516Z,99641.00
2023-11-21T23:23:34.395Z,99649.16
2023-11-21T23:26:05.150Z,99643.94
2023-11-21T23:28:35.605Z,99646.53
2023-11-21T23:31:06.317Z,99650.16
2023-11-21T23:33:42.314Z,99652.09
2023-11-21T23:36:14.091Z,99648.16
2023-11-21T23:38:44.976Z,99644.69
2023-11-21T23:41:17.762Z,99655.03
2023-11-21T23:43:48.607Z,99652.44
2023-11-21T23:46:19.177Z,99658.75
2023-11-21T23:48:52.589Z,99652.75
2023-11-21T23:51:25.483Z,99648.56
2023-11-21T23:53:56.535Z,99646.63
2023-11-21T23:56:27.426Z,99650.16
2023-11-21T23:58:58.209Z,99653.53
